createdAt,value
2018-11-28T00:01:29.897Z,101669.11
2018-11-28T00:03:58.770Z,101662.80
2018-11-28T00:06:27.706Z,101657.28
2018-11-28T00:08:56.590Z,101655.60
2018-11-28T00:11:27.508Z,101669.98
2018-11-28T00:13:57.485Z,101668.08
2018-11-28T00:16:26.434Z,101667.28
2018-11-28T00:21:55.215Z,101659.17
2018-11-28T00:24:24.118Z,101660.58
2018-11-28T00:26:53.096Z,101656.00
2018-11-28T00:29:22.115Z,101651.13
2018-11-28T00:32:07.393Z,101642.15
2018-11-28T00:40:31.222Z,101626.59
2018-11-28T00:43:00.552Z,101633.00
2018-11-28T00:45:32.106Z,101630.25
2018-11-28T00:48:04.958Z,101621.78
2018-11-28T00:50:39.505Z,101618.42
2018-11-28T00:53:12.033Z,101620.66
2018-11-28T00:55:41.026Z,101619.15
2018-11-28T00:58:09.969Z,101611.53
2018-11-28T01:00:46.791Z,101608.84
2018-11-28T01:03:15.701Z,101611.41
2018-11-28T01:05:44.555Z,101611.71
2018-11-28T01:08:13.478Z,101599.98
2018-11-28T01:10:47.077Z,101602.62
2018-11-28T01:13:21.574Z,101603.52
2018-11-28T01:15:57.249Z,101602.38
2018-11-28T01:18:26.168Z,101598.45
2018-11-28T01:20:55.051Z,101605.75
2018-11-28T01:23:23.965Z,101606.94
2018-11-28T01:25:52.826Z,101606.03
2018-11-28T01:28:21.707Z,101612.34
2018-11-28T01:33:56.737Z,101615.05
2018-11-28T01:36:25.618Z,101615.63
2018-11-28T01:39:08.311Z,101614.30
2018-11-28T01:41:47.072Z,101611.34
2018-11-28T01:44:16.006Z,101606.49
2018-11-28T01:46:44.868Z,101605.33
2018-11-28T01:49:19.704Z,101605.83
2018-11-28T01:54:43.854Z,101611.06
2018-11-28T01:57:16.365Z,101615.98
2018-11-28T01:59:50.903Z,101613.23
2018-11-28T02:02:21.818Z,101615.09
2018-11-28T02:04:50.727Z,101621.91
2018-11-28T02:07:19.633Z,101620.91
2018-11-28T02:09:50.524Z,101617.73
2018-11-28T02:12:23.236Z,101615.33
2018-11-28T02:14:52.114Z,101611.06
2018-11-28T02:17:20.984Z,101613.77
2018-11-28T02:19:49.911Z,101610.27
2018-11-28T02:22:22.115Z,101599.46
2018-11-28T02:24:51.162Z,101602.39
2018-11-28T02:27:20.070Z,101603.02
2018-11-28T02:29:48.971Z,101600.23
2018-11-28T02:32:18.151Z,101604.13
2018-11-28T02:34:51.327Z,101599.39
2018-11-28T02:37:22.242Z,101598.03
2018-11-28T02:39:51.180Z,101587.97
2018-11-28T02:42:20.076Z,101593.88
2018-11-28T02:45:11.112Z,101597.06
2018-11-28T02:47:40.006Z,101598.73
2018-11-28T02:50:22.632Z,101591.72
2018-11-28T02:52:51.559Z,101588.72
2018-11-28T02:55:20.465Z,101578.19
2018-11-28T02:57:50.059Z,101578.42
2018-11-28T03:00:22.120Z,101577.38
2018-11-28T03:02:51.088Z,101578.41
2018-11-28T03:05:20.255Z,101579.74
2018-11-28T03:07:49.254Z,101579.74
2018-11-28T03:10:19.176Z,101572.29
2018-11-28T03:12:48.367Z,101566.61
2018-11-28T03:15:28.573Z,101576.73
2018-11-28T03:17:57.586Z,101575.75
2018-11-28T03:20:39.556Z,101576.23
2018-11-28T03:23:12.981Z,101578.06
2018-11-28T03:25:41.917Z,101586.75
2018-11-28T03:28:10.798Z,101585.08
2018-11-28T03:30:46.734Z,101579.41
2018-11-28T03:33:23.462Z,101570.66
2018-11-28T03:36:05.573Z,101567.41
2018-11-28T03:41:28.851Z,101562.63
2018-11-28T03:43:57.845Z,101561.16
2018-11-28T03:46:26.826Z,101560.81
2018-11-28T03:48:55.788Z,101554.50
2018-11-28T03:51:26.821Z,101554.16
2018-11-28T03:53:55.683Z,101555.15
2018-11-28T03:56:24.588Z,101551.63
2018-11-28T03:59:00.014Z,101543.16
2018-11-28T04:01:28.908Z,101548.53
2018-11-28T04:03:57.800Z,101555.87
2018-11-28T04:06:28.720Z,101556.83
2018-11-28T04:08:57.590Z,101556.87
2018-11-28T04:11:26.778Z,101553.55
2018-11-28T04:13:55.633Z,101549.56
2018-11-28T04:16:24.542Z,101546.23
2018-11-28T04:18:53.497Z,101561.55
2018-11-28T04:21:22.380Z,101563.22
2018-11-28T04:23:51.266Z,101565.06
2018-11-28T04:26:22.346Z,101573.57
2018-11-28T04:29:05.736Z,101565.06
2018-11-28T04:31:35.761Z,101574.39
2018-11-28T04:34:06.242Z,101572.06
2018-11-28T04:36:38.842Z,101564.89
2018-11-28T04:39:08.760Z,101565.42
2018-11-28T04:41:43.488Z,101559.39
2018-11-28T04:44:31.725Z,101570.25
2018-11-28T04:47:14.153Z,101563.89
2018-11-28T04:49:42.779Z,101561.55
2018-11-28T04:52:20.089Z,101560.41
2018-11-28T04:55:03.012Z,101547.25
2018-11-28T04:57:55.042Z,101547.22
2018-11-28T05:00:27.966Z,101547.88
2018-11-28T05:03:10.150Z,101549.58
2018-11-28T05:05:40.538Z,101551.73
2018-11-28T05:08:20.637Z,101549.89
2018-11-28T05:11:02.718Z,101550.72
2018-11-28T05:13:54.846Z,101551.87
2018-11-28T05:16:30.016Z,101543.26
2018-11-28T05:19:06.062Z,101537.41
2018-11-28T05:21:40.773Z,101551.08
2018-11-28T05:24:09.775Z,101550.88
2018-11-28T05:26:43.977Z,101549.08
2018-11-28T05:29:20.201Z,101542.92
2018-11-28T05:32:05.439Z,101543.58
2018-11-28T05:34:41.619Z,101547.08
2018-11-28T05:40:08.990Z,101543.59
2018-11-28T05:42:46.158Z,101541.76
2018-11-28T05:45:33.362Z,101535.59
2018-11-28T05:48:15.239Z,101541.59
2018-11-28T05:51:03.529Z,101543.91
2018-11-28T05:53:32.442Z,101538.27
2018-11-28T05:56:01.348Z,101539.73
2018-11-28T05:58:30.276Z,101542.58
2018-11-28T06:01:21.683Z,101540.91
2018-11-28T06:04:04.642Z,101541.56
2018-11-28T06:06:40.819Z,101541.56
2018-11-28T06:09:10.533Z,101540.59
2018-11-28T06:11:41.470Z,101543.73
2018-11-28T06:14:12.421Z,101545.92
2018-11-28T06:16:41.433Z,101545.23
2018-11-28T06:19:20.493Z,101546.25
2018-11-28T06:21:57.430Z,101545.91
2018-11-28T06:24:26.391Z,101537.25
2018-11-28T06:26:56.346Z,101542.08
2018-11-28T06:29:28.863Z,101542.41
2018-11-28T06:32:03.422Z,101546.59
2018-11-28T06:37:27.376Z,101547.58
2018-11-28T06:40:00.008Z,101546.23
2018-11-28T06:42:30.896Z,101558.58
2018-11-28T06:45:00.873Z,101555.92
2018-11-28T06:47:37.123Z,101560.75
2018-11-28T06:50:11.994Z,101565.58
2018-11-28T06:52:46.172Z,101567.24
2018-11-28T06:55:16.173Z,101563.75
2018-11-28T06:57:45.064Z,101568.25
2018-11-28T07:00:15.106Z,101567.56
2018-11-28T07:02:44.100Z,101569.25
2018-11-28T07:05:13.460Z,101572.57
2018-11-28T07:07:42.543Z,101574.23
2018-11-28T07:10:17.571Z,101584.09
2018-11-28T07:12:52.302Z,101583.58
2018-11-28T07:15:32.553Z,101572.74
2018-11-28T07:18:12.857Z,101587.58
2018-11-28T07:20:42.866Z,101578.23
2018-11-28T07:23:11.855Z,101582.55
2018-11-28T07:25:40.747Z,101590.26
2018-11-28T07:28:09.669Z,101590.24
2018-11-28T07:30:39.672Z,101592.59
2018-11-28T07:33:12.645Z,101591.57
2018-11-28T07:35:47.990Z,101600.93
2018-11-28T07:38:35.474Z,101603.73
2018-11-28T07:41:10.890Z,101600.91
2018-11-28T07:43:50.198Z,101596.73
2018-11-28T07:46:25.526Z,101607.08
2018-11-28T07:49:05.179Z,101600.91
2018-11-28T07:51:38.985Z,101608.09
2018-11-28T07:54:31.072Z,101599.08
2018-11-28T07:56:59.992Z,101599.91
2018-11-28T07:59:29.964Z,101615.09
2018-11-28T08:02:12.867Z,101609.59
2018-11-28T08:04:58.583Z,101607.23
2018-11-28T08:07:32.494Z,101609.23
2018-11-28T08:10:24.366Z,101606.37
2018-11-28T08:15:34.562Z,101617.91
2018-11-28T08:18:05.496Z,101614.08
2018-11-28T08:20:38.072Z,101618.70
2018-11-28T08:23:06.999Z,101609.87
2018-11-28T08:25:42.090Z,101611.41
2018-11-28T08:28:36.139Z,101623.91
2018-11-28T08:31:04.137Z,101620.08
2018-11-28T08:33:34.056Z,101609.91
2018-11-28T08:36:03.063Z,101611.19
2018-11-28T08:38:37.455Z,101608.86
2018-11-28T08:41:06.529Z,101601.19
2018-11-28T08:46:47.406Z,101599.70
2018-11-28T08:49:21.060Z,101593.45
2018-11-28T08:51:57.128Z,101604.14
2018-11-28T08:54:48.294Z,101603.59
2018-11-28T08:57:18.239Z,101596.61
2018-11-28T08:59:53.114Z,101600.78
2018-11-28T09:02:24.121Z,101598.72
2018-11-28T09:08:05.182Z,101598.42
2018-11-28T09:10:39.240Z,101603.73
2018-11-28T09:13:10.112Z,101602.43
2018-11-28T09:15:40.412Z,101601.41
2018-11-28T09:18:17.103Z,101596.05
2018-11-28T09:20:59.128Z,101599.73
2018-11-28T09:23:28.037Z,101602.77
2018-11-28T09:26:00.982Z,101606.06
2018-11-28T09:28:30.995Z,101603.19
2018-11-28T09:31:08.008Z,101599.03
2018-11-28T09:33:37.941Z,101608.65
2018-11-28T09:36:12.309Z,101605.02
2018-11-28T09:38:41.270Z,101603.30
2018-11-28T09:41:10.669Z,101599.27
2018-11-28T09:43:49.864Z,101605.02
2018-11-28T09:46:19.857Z,101608.34
2018-11-28T09:48:48.752Z,101603.64
2018-11-28T09:51:17.658Z,101597.14
2018-11-28T09:53:46.578Z,101593.62
2018-11-28T09:56:15.416Z,101608.29
2018-11-28T09:58:44.320Z,101607.88
2018-11-28T10:01:17.239Z,101613.17
2018-11-28T10:03:52.612Z,101597.57
2018-11-28T10:06:21.501Z,101598.03
2018-11-28T10:08:50.490Z,101594.05
2018-11-28T10:11:38.499Z,101597.23
2018-11-28T10:14:07.790Z,101584.31
2018-11-28T10:16:37.189Z,101581.17
2018-11-28T10:19:09.539Z,101575.79
2018-11-28T10:21:46.911Z,101571.31
2018-11-28T10:24:16.365Z,101570.83
2018-11-28T10:26:45.559Z,101561.84
2018-11-28T10:29:14.910Z,101564.63
2018-11-28T10:31:43.860Z,101550.73
2018-11-28T10:34:13.381Z,101550.06
2018-11-28T10:37:00.537Z,101554.89
2018-11-28T10:39:30.489Z,101555.56
2018-11-28T10:42:24.163Z,101555.48
2018-11-28T10:44:57.685Z,101549.88
2018-11-28T10:47:47.533Z,101552.18
2018-11-28T10:50:17.526Z,101540.50
2018-11-28T10:52:51.899Z,101548.98
2018-11-28T10:55:21.746Z,101543.45
2018-11-28T10:57:50.783Z,101543.84
2018-11-28T11:00:33.015Z,101551.05
2018-11-28T11:03:07.304Z,101545.08
2018-11-28T11:05:47.724Z,101541.83
2018-11-28T11:08:21.873Z,101548.48
2018-11-28T11:10:56.442Z,101537.15
2018-11-28T11:13:30.747Z,101538.48
2018-11-28T11:16:00.259Z,101535.44
2018-11-28T11:18:29.546Z,101532.04
2018-11-28T11:21:05.360Z,101530.12
2018-11-28T11:23:51.461Z,101539.44
2018-11-28T11:26:20.790Z,101528.03
2018-11-28T11:28:50.149Z,101527.70
2018-11-28T11:31:19.583Z,101519.52
2018-11-28T11:33:48.924Z,101523.62
2018-11-28T11:36:18.326Z,101520.80
2018-11-28T11:39:01.859Z,101520.72
2018-11-28T11:41:31.263Z,101518.08
2018-11-28T11:46:56.154Z,101506.84
2018-11-28T11:49:29.995Z,101504.47
2018-11-28T11:52:21.313Z,101501.30
2018-11-28T11:57:49.029Z,101506.94
2018-11-28T12:00:25.760Z,101506.84
2018-11-28T12:03:11.505Z,101498.53
2018-11-28T12:05:57.317Z,101494.89
2018-11-28T12:08:40.975Z,101493.88
2018-11-28T12:11:27.533Z,101489.20
2018-11-28T12:13:56.859Z,101485.63
2018-11-28T12:16:25.838Z,101494.34
2018-11-28T12:19:01.824Z,101498.58
2018-11-28T12:21:31.174Z,101494.42
2018-11-28T12:24:00.049Z,101486.50
2018-11-28T12:26:46.417Z,101487.45
2018-11-28T12:29:36.179Z,101479.83
2018-11-28T12:32:07.616Z,101492.10
2018-11-28T12:34:40.954Z,101485.33
2018-11-28T12:37:10.066Z,101483.06
2018-11-28T12:39:40.037Z,101488.80
2018-11-28T12:45:11.564Z,101481.53
2018-11-28T12:47:52.574Z,101492.43
2018-11-28T12:50:28.166Z,101478.71
2018-11-28T12:52:59.223Z,101473.94
2018-11-28T12:58:27.488Z,101469.39
2018-11-28T13:01:19.396Z,101463.41
2018-11-28T13:03:50.015Z,101469.61
2018-11-28T13:06:22.611Z,101461.36
2018-11-28T13:08:53.014Z,101455.05
2018-11-28T13:11:22.310Z,101455.27
2018-11-28T13:13:51.368Z,101453.33
2018-11-28T13:16:25.173Z,101452.70
2018-11-28T13:19:05.607Z,101451.98
2018-11-28T13:21:38.920Z,101441.27
2018-11-28T13:24:11.000Z,101444.07
2018-11-28T13:26:43.742Z,101444.82
2018-11-28T13:29:24.130Z,101434.25
2018-11-28T13:32:05.032Z,101428.41
2018-11-28T13:34:33.930Z,101429.96
2018-11-28T13:37:02.856Z,101435.50
2018-11-28T13:39:36.682Z,101427.54
2018-11-28T13:42:09.259Z,101418.95
2018-11-28T13:44:45.631Z,101411.33
2018-11-28T13:47:14.816Z,101414.49
2018-11-28T13:49:49.748Z,101406.27
2018-11-28T13:52:20.196Z,101407.52
2018-11-28T13:55:37.826Z,101403.63
2018-11-28T13:57:21.464Z,101399.06
2018-11-28T14:02:49.597Z,101399.09
2018-11-28T14:05:31.249Z,101398.59
2018-11-28T14:08:00.214Z,101395.06
2018-11-28T14:10:31.194Z,101400.82
2018-11-28T14:13:00.159Z,101394.84
2018-11-28T14:15:29.141Z,101396.61
2018-11-28T14:18:01.137Z,101394.45
2018-11-28T14:20:30.121Z,101400.95
2018-11-28T14:23:12.050Z,101396.45
2018-11-28T14:25:40.962Z,101392.98
2018-11-28T14:28:10.224Z,101401.70
2018-11-28T14:30:46.454Z,101399.16
2018-11-28T14:33:23.529Z,101404.52
2018-11-28T14:35:56.122Z,101406.93
2018-11-28T14:38:28.849Z,101412.33
2018-11-28T14:40:57.954Z,101416.01
2018-11-28T14:43:27.169Z,101401.54
2018-11-28T14:46:08.085Z,101399.48
2018-11-28T14:48:41.955Z,101396.12
2018-11-28T14:51:10.925Z,101397.06
2018-11-28T14:53:48.117Z,101391.22
2018-11-28T14:56:19.457Z,101394.78
2018-11-28T14:58:52.453Z,101383.12
2018-11-28T15:01:23.525Z,101402.42
2018-11-28T15:03:55.052Z,101390.70
2018-11-28T15:06:31.866Z,101386.67
2018-11-28T15:09:07.140Z,101388.90
2018-11-28T15:11:39.680Z,101386.41
2018-11-28T15:14:08.687Z,101383.28
2018-11-28T15:16:50.388Z,101385.02
2018-11-28T15:19:30.646Z,101385.14
2018-11-28T15:22:07.525Z,101385.02
2018-11-28T15:24:37.549Z,101389.22
2018-11-28T15:27:08.185Z,101394.25
2018-11-28T15:29:39.210Z,101381.88
2018-11-28T15:32:10.478Z,101373.19
2018-11-28T15:34:49.604Z,101374.49
2018-11-28T15:37:29.524Z,101361.59
2018-11-28T15:40:05.719Z,101368.51
2018-11-28T15:42:40.747Z,101355.78
2018-11-28T15:45:16.645Z,101353.17
2018-11-28T15:48:02.914Z,101359.05
2018-11-28T15:50:38.454Z,101370.16
2018-11-28T15:53:07.989Z,101359.73
2018-11-28T15:55:37.198Z,101360.71
2018-11-28T15:58:06.770Z,101375.22
2018-11-28T16:00:41.608Z,101383.85
2018-11-28T16:03:24.773Z,101384.91
2018-11-28T16:05:55.939Z,101385.19
2018-11-28T16:08:37.213Z,101375.93
2018-11-28T16:11:13.475Z,101377.47
2018-11-28T16:14:01.687Z,101371.98
2018-11-28T16:16:36.594Z,101359.55
2018-11-28T16:19:19.230Z,101360.52
2018-11-28T16:22:04.981Z,101364.02
2018-11-28T16:24:50.669Z,101374.70
2018-11-28T16:27:21.997Z,101368.73
2018-11-28T16:30:03.441Z,101384.92
2018-11-28T16:32:44.476Z,101391.62
2018-11-28T16:35:17.062Z,101397.20
2018-11-28T16:37:48.480Z,101403.12
2018-11-28T16:40:17.448Z,101397.81
2018-11-28T16:42:47.363Z,101388.84
2018-11-28T16:45:18.347Z,101390.56
2018-11-28T16:47:48.809Z,101398.11
2018-11-28T16:50:18.166Z,101391.95
2018-11-28T16:53:04.336Z,101391.57
2018-11-28T16:55:33.355Z,101392.61
2018-11-28T16:58:02.257Z,101384.31
2018-11-28T17:00:39.126Z,101398.02
2018-11-28T17:03:26.003Z,101401.40
2018-11-28T17:05:56.002Z,101400.59
2018-11-28T17:08:31.232Z,101409.80
2018-11-28T17:11:22.457Z,101395.91
2018-11-28T17:13:51.400Z,101399.77
2018-11-28T17:16:27.231Z,101405.89
2018-11-28T17:19:02.299Z,101405.78
2018-11-28T17:21:38.942Z,101400.25
2018-11-28T17:24:11.105Z,101402.12
2018-11-28T17:26:41.055Z,101396.28
2018-11-28T17:29:12.183Z,101390.50
2018-11-28T17:31:45.120Z,101385.58
2018-11-28T17:34:14.568Z,101388.73
2018-11-28T17:36:45.193Z,101372.09
2018-11-28T17:39:15.127Z,101377.15
2018-11-28T17:41:51.529Z,101388.46
2018-11-28T17:44:21.524Z,101405.02
2018-11-28T17:46:52.941Z,101394.09
2018-11-28T17:49:28.110Z,101397.16
2018-11-28T17:51:59.501Z,101394.38
2018-11-28T17:54:32.580Z,101383.91
2018-11-28T17:57:01.506Z,101381.25
2018-11-28T17:59:31.537Z,101379.97
2018-11-28T18:02:02.501Z,101383.30
2018-11-28T18:04:32.098Z,101381.25
2018-11-28T18:07:03.460Z,101388.75
2018-11-28T18:09:36.247Z,101390.94
2018-11-28T18:12:06.263Z,101389.51
2018-11-28T18:14:45.227Z,101395.04
2018-11-28T18:17:15.246Z,101392.91
2018-11-28T18:19:44.154Z,101402.27
2018-11-28T18:22:37.164Z,101405.16
2018-11-28T18:25:11.875Z,101385.41
2018-11-28T18:27:42.886Z,101389.60
2018-11-28T18:30:16.507Z,101388.61
2018-11-28T18:32:57.931Z,101382.89
2018-11-28T18:35:45.755Z,101392.00
2018-11-28T18:38:19.387Z,101377.82
2018-11-28T18:40:50.383Z,101391.38
2018-11-28T18:43:24.115Z,101388.84
2018-11-28T18:48:59.540Z,101388.80
2018-11-28T18:51:30.470Z,101393.63
2018-11-28T18:54:03.456Z,101380.92
2018-11-28T18:56:33.515Z,101381.27
2018-11-28T18:59:04.557Z,101376.06
2018-11-28T19:01:34.499Z,101377.48
2018-11-28T19:04:04.490Z,101378.25
2018-11-28T19:06:34.490Z,101367.45
2018-11-28T19:09:04.466Z,101366.41
2018-11-28T19:11:34.487Z,101361.16
2018-11-28T19:14:12.274Z,101359.02
2018-11-28T19:16:39.869Z,101347.55
2018-11-28T19:22:07.701Z,101335.33
2018-11-28T19:24:37.658Z,101337.38
2018-11-28T19:27:06.926Z,101326.23
2018-11-28T19:29:54.542Z,101329.63
2018-11-28T19:32:23.537Z,101339.13
2018-11-28T19:34:53.494Z,101341.61
2018-11-28T19:37:33.540Z,101343.47
2018-11-28T19:40:03.525Z,101353.41
2018-11-28T19:42:38.233Z,101352.91
2018-11-28T19:45:08.034Z,101349.53
2018-11-28T19:47:42.378Z,101352.97
2018-11-28T19:50:29.905Z,101348.52
2018-11-28T19:53:06.870Z,101344.18
2018-11-28T19:55:49.407Z,101336.13
2018-11-28T19:58:25.868Z,101331.08
2018-11-28T20:00:59.493Z,101335.81
2018-11-28T20:03:34.236Z,101338.37
2018-11-28T20:06:04.689Z,101344.44
2018-11-28T20:08:34.341Z,101343.05
2018-11-28T20:11:03.971Z,101345.39
2018-11-28T20:13:33.573Z,101338.92
2018-11-28T20:16:02.908Z,101340.59
2018-11-28T20:18:38.239Z,101336.62
2018-11-28T20:21:08.189Z,101336.58
2018-11-28T20:23:41.162Z,101341.92
2018-11-28T20:26:10.120Z,101338.92
2018-11-28T20:28:48.978Z,101332.20
2018-11-28T20:31:17.944Z,101320.52
2018-11-28T20:33:46.916Z,101317.77
2018-11-28T20:39:11.746Z,101307.06
2018-11-28T20:41:42.028Z,101308.14
2018-11-28T20:44:12.856Z,101311.34
2018-11-28T20:46:54.856Z,101320.19
2018-11-28T20:49:23.873Z,101309.61
2018-11-28T20:51:52.902Z,101315.36
2018-11-28T20:54:21.932Z,101312.55
2018-11-28T20:56:50.922Z,101315.63
2018-11-28T20:59:27.083Z,101320.78
2018-11-28T21:02:01.366Z,101321.24
2018-11-28T21:04:32.418Z,101326.59
2018-11-28T21:07:04.949Z,101326.59
2018-11-28T21:09:39.096Z,101321.86
2018-11-28T21:12:08.238Z,101316.16
2018-11-28T21:14:37.175Z,101317.52
2018-11-28T21:17:07.206Z,101316.18
2018-11-28T21:19:36.208Z,101309.33
2018-11-28T21:22:05.431Z,101322.45
2018-11-28T21:24:51.235Z,101315.30
2018-11-28T21:27:24.134Z,101316.16
2018-11-28T21:30:15.969Z,101311.94
2018-11-28T21:32:46.083Z,101308.74
2018-11-28T21:35:18.706Z,101308.28
2018-11-28T21:37:49.591Z,101298.23
2018-11-28T21:40:32.845Z,101294.61
2018-11-28T21:43:08.474Z,101296.02
2018-11-28T21:45:59.812Z,101300.16
2018-11-28T21:48:28.725Z,101297.28
2018-11-28T21:51:01.520Z,101302.58
2018-11-28T21:53:32.513Z,101299.41
2018-11-28T21:56:02.502Z,101294.87
2018-11-28T21:58:31.517Z,101300.23
2018-11-28T22:01:00.501Z,101291.11
2018-11-28T22:03:35.779Z,101286.16
2018-11-28T22:06:05.997Z,101288.11
2018-11-28T22:08:35.146Z,101289.84
2018-11-28T22:11:20.620Z,101291.63
2018-11-28T22:14:03.334Z,101294.87
2018-11-28T22:16:44.863Z,101286.80
2018-11-28T22:19:20.206Z,101280.47
2018-11-28T22:21:57.074Z,101284.81
2018-11-28T22:27:44.080Z,101279.12
2018-11-28T22:30:25.694Z,101275.23
2018-11-28T22:33:07.259Z,101263.19
2018-11-28T22:35:54.812Z,101261.03
2018-11-28T22:38:25.817Z,101256.81
2018-11-28T22:41:05.386Z,101257.20
2018-11-28T22:43:36.336Z,101250.77
2018-11-28T22:46:12.788Z,101243.73
2018-11-28T22:48:54.149Z,101235.77
2018-11-28T22:51:26.767Z,101230.86
2018-11-28T22:53:57.836Z,101250.70
2018-11-28T22:56:26.830Z,101256.67
2018-11-28T22:58:55.970Z,101262.75
2018-11-28T23:01:42.396Z,101254.00
2018-11-28T23:04:12.472Z,101266.17
2018-11-28T23:06:47.216Z,101263.13
2018-11-28T23:09:28.908Z,101262.12
2018-11-28T23:11:59.046Z,101269.62
2018-11-28T23:14:46.570Z,101259.61
2018-11-28T23:17:22.808Z,101254.25
2018-11-28T23:19:51.748Z,101241.18
2018-11-28T23:22:28.592Z,101234.48
2018-11-28T23:25:00.905Z,101233.11
2018-11-28T23:27:42.496Z,101228.56
2018-11-28T23:30:24.281Z,101229.05
2018-11-28T23:32:55.603Z,101231.73
2018-11-28T23:35:25.065Z,101246.27
2018-11-28T23:37:55.146Z,101258.61
2018-11-28T23:40:25.186Z,101256.95
2018-11-28T23:43:08.063Z,101238.91
2018-11-28T23:45:38.022Z,101228.64
2018-11-28T23:48:11.818Z,101226.13
2018-11-28T23:50:40.908Z,101207.70
2018-11-28T23:53:09.820Z,101212.86
2018-11-28T23:55:45.622Z,101216.22
2018-11-28T23:58:15.679Z,101196.13
